sensor_id;sensor_type;location;lat;lon;timestamp;pressure;altitude;pressure_sealevel;temperature;humidity
46642;BME280;32370;41.864;-88.124;2023-03-04T00:02:52;97252.96;;;0.89;89.54
46642;BME280;32370;41.864;-88.124;2023-03-04T00:05:20;97248.36;;;0.98;88.74
46642;BME280;32370;41.864;-88.124;2023-03-04T00:07:47;97256.04;;;0.93;88.43
46642;BME280;32370;41.864;-88.124;2023-03-04T00:10:16;97257.49;;;0.89;88.40
46642;BME280;32370;41.864;-88.124;2023-03-04T00:12:44;97256.07;;;0.82;88.27
46642;BME280;32370;41.864;-88.124;2023-03-04T00:15:12;97272.88;;;0.82;88.07
46642;BME280;32370;41.864;-88.124;2023-03-04T00:17:40;97277.99;;;1.13;87.19
46642;BME280;32370;41.864;-88.124;2023-03-04T00:20:09;97294.91;;;1.14;86.45
46642;BME280;32370;41.864;-88.124;2023-03-04T00:22:37;97295.13;;;0.73;86.89
46642;BME280;32370;41.864;-88.124;2023-03-04T00:25:06;97308.18;;;0.69;87.14
46642;BME280;32370;41.864;-88.124;2023-03-04T00:27:34;97318.89;;;0.59;87.39
46642;BME280;32370;41.864;-88.124;2023-03-04T00:30:02;97328.62;;;0.75;87.88
46642;BME280;32370;41.864;-88.124;2023-03-04T00:32:30;97321.78;;;0.72;88.02
46642;BME280;32370;41.864;-88.124;2023-03-04T00:35:04;97326.71;;;0.43;88.98
46642;BME280;32370;41.864;-88.124;2023-03-04T00:37:32;97349.12;;;0.79;89.28
46642;BME280;32370;41.864;-88.124;2023-03-04T00:40:00;97372.65;;;0.78;89.54
46642;BME280;32370;41.864;-88.124;2023-03-04T00:42:28;97373.73;;;0.78;89.46
46642;BME280;32370;41.864;-88.124;2023-03-04T00:44:56;97369.73;;;0.65;90.05
46642;BME280;32370;41.864;-88.124;2023-03-04T00:47:24;97368.93;;;0.96;88.80
46642;BME280;32370;41.864;-88.124;2023-03-04T00:49:52;97381.63;;;0.92;88.31
46642;BME280;32370;41.864;-88.124;2023-03-04T00:52:19;97390.61;;;0.45;89.30
46642;BME280;32370;41.864;-88.124;2023-03-04T00:54:47;97403.36;;;0.96;88.76
46642;BME280;32370;41.864;-88.124;2023-03-04T00:57:15;97404.38;;;0.42;88.69
46642;BME280;32370;41.864;-88.124;2023-03-04T00:59:43;97408.70;;;0.86;87.55
46642;BME280;32370;41.864;-88.124;2023-03-04T01:02:12;97410.96;;;0.45;88.46
46642;BME280;32370;41.864;-88.124;2023-03-04T01:04:39;97410.84;;;0.79;88.01
46642;BME280;32370;41.864;-88.124;2023-03-04T01:07:07;97416.69;;;0.90;87.58
46642;BME280;32370;41.864;-88.124;2023-03-04T01:09:35;97423.18;;;0.97;89.40
46642;BME280;32370;41.864;-88.124;2023-03-04T01:12:05;97435.55;;;0.84;88.73
46642;BME280;32370;41.864;-88.124;2023-03-04T01:14:33;97445.39;;;0.51;88.55
46642;BME280;32370;41.864;-88.124;2023-03-04T01:17:01;97453.73;;;0.70;89.50
46642;BME280;32370;41.864;-88.124;2023-03-04T01:19:29;97455.79;;;0.96;88.09
46642;BME280;32370;41.864;-88.124;2023-03-04T01:21:57;97461.36;;;0.66;88.31
46642;BME280;32370;41.864;-88.124;2023-03-04T01:24:25;97470.54;;;1.05;87.55
46642;BME280;32370;41.864;-88.124;2023-03-04T01:26:53;97473.96;;;0.51;88.71
46642;BME280;32370;41.864;-88.124;2023-03-04T01:29:21;97490.97;;;0.37;88.47
46642;BME280;32370;41.864;-88.124;2023-03-04T01:31:49;97502.73;;;0.61;88.65
46642;BME280;32370;41.864;-88.124;2023-03-04T01:34:17;97509.10;;;0.95;87.73
46642;BME280;32370;41.864;-88.124;2023-03-04T01:36:45;97512.68;;;0.64;87.21
46642;BME280;32370;41.864;-88.124;2023-03-04T01:39:12;97518.69;;;0.84;87.03
46642;BME280;32370;41.864;-88.124;2023-03-04T01:41:40;97530.61;;;0.40;88.45
46642;BME280;32370;41.864;-88.124;2023-03-04T01:44:09;97541.73;;;0.19;89.55
46642;BME280;32370;41.864;-88.124;2023-03-04T01:46:41;97549.85;;;0.24;89.58
46642;BME280;32370;41.864;-88.124;2023-03-04T01:49:14;97549.18;;;0.41;88.71
46642;BME280;32370;41.864;-88.124;2023-03-04T01:51:43;97561.52;;;0.56;88.92
46642;BME280;32370;41.864;-88.124;2023-03-04T01:54:12;97568.74;;;0.68;88.56
46642;BME280;32370;41.864;-88.124;2023-03-04T01:56:42;97563.63;;;0.54;88.99
46642;BME280;32370;41.864;-88.124;2023-03-04T01:59:13;97571.02;;;0.64;88.67
46642;BME280;32370;41.864;-88.124;2023-03-04T02:01:43;97578.26;;;0.17;88.93
46642;BME280;32370;41.864;-88.124;2023-03-04T02:04:12;97594.57;;;0.45;88.87
46642;BME280;32370;41.864;-88.124;2023-03-04T02:06:41;97604.55;;;0.69;88.16
46642;BME280;32370;41.864;-88.124;2023-03-04T02:09:10;97613.85;;;0.36;89.89
46642;BME280;32370;41.864;-88.124;2023-03-04T02:11:38;97623.24;;;0.46;89.43
46642;BME280;32370;41.864;-88.124;2023-03-04T02:14:08;97631.32;;;0.58;89.20
46642;BME280;32370;41.864;-88.124;2023-03-04T02:16:37;97638.41;;;0.39;87.98
46642;BME280;32370;41.864;-88.124;2023-03-04T02:19:08;97645.26;;;0.35;88.10
46642;BME280;32370;41.864;-88.124;2023-03-04T02:21:40;97648.64;;;0.43;88.10
46642;BME280;32370;41.864;-88.124;2023-03-04T02:24:12;97651.20;;;0.67;86.86
46642;BME280;32370;41.864;-88.124;2023-03-04T02:26:42;97658.69;;;0.19;88.52
46642;BME280;32370;41.864;-88.124;2023-03-04T02:29:12;97665.15;;;-0.08;89.38
46642;BME280;32370;41.864;-88.124;2023-03-04T02:31:41;97674.57;;;-0.11;89.28
46642;BME280;32370;41.864;-88.124;2023-03-04T02:34:13;97676.65;;;0.39;88.47
46642;BME280;32370;41.864;-88.124;2023-03-04T02:36:43;97684.74;;;0.02;89.63
46642;BME280;32370;41.864;-88.124;2023-03-04T02:39:20;97696.78;;;0.22;89.72
46642;BME280;32370;41.864;-88.124;2023-03-04T02:41:51;97705.26;;;0.32;88.91
46642;BME280;32370;41.864;-88.124;2023-03-04T02:44:21;97715.85;;;0.13;90.32
46642;BME280;32370;41.864;-88.124;2023-03-04T02:46:50;97717.44;;;0.47;88.19
46642;BME280;32370;41.864;-88.124;2023-03-04T02:49:19;97724.15;;;0.31;88.61
46642;BME280;32370;41.864;-88.124;2023-03-04T02:51:50;97730.02;;;0.00;89.35
46642;BME280;32370;41.864;-88.124;2023-03-04T02:54:20;97735.46;;;0.07;89.49
46642;BME280;32370;41.864;-88.124;2023-03-04T02:56:49;97739.28;;;-0.47;91.19
46642;BME280;32370;41.864;-88.124;2023-03-04T02:59:18;97747.26;;;-0.20;91.01
46642;BME280;32370;41.864;-88.124;2023-03-04T03:01:46;97750.91;;;-0.69;92.20
46642;BME280;32370;41.864;-88.124;2023-03-04T03:04:15;97753.10;;;-0.94;93.40
46642;BME280;32370;41.864;-88.124;2023-03-04T03:06:43;97752.31;;;-1.13;94.03
46642;BME280;32370;41.864;-88.124;2023-03-04T03:09:11;97757.87;;;-0.69;93.97
46642;BME280;32370;41.864;-88.124;2023-03-04T03:11:39;97753.48;;;-1.07;94.74
46642;BME280;32370;41.864;-88.124;2023-03-04T03:14:08;97755.10;;;-1.09;95.09
46642;BME280;32370;41.864;-88.124;2023-03-04T03:16:36;97753.54;;;-0.82;94.86
46642;BME280;32370;41.864;-88.124;2023-03-04T03:19:04;97760.29;;;-1.27;95.73
46642;BME280;32370;41.864;-88.124;2023-03-04T03:21:32;97767.08;;;-1.44;96.55
46642;BME280;32370;41.864;-88.124;2023-03-04T03:24:00;97767.64;;;-1.28;97.11
46642;BME280;32370;41.864;-88.124;2023-03-04T03:26:28;97773.05;;;-1.28;97.14
46642;BME280;32370;41.864;-88.124;2023-03-04T03:28:56;97779.87;;;-1.59;96.87
46642;BME280;32370;41.864;-88.124;2023-03-04T03:31:24;97788.14;;;-1.91;97.29
46642;BME280;32370;41.864;-88.124;2023-03-04T03:33:52;97797.31;;;-1.98;97.84
46642;BME280;32370;41.864;-88.124;2023-03-04T03:36:20;97800.40;;;-1.64;97.53
46642;BME280;32370;41.864;-88.124;2023-03-04T03:38:47;97808.44;;;-1.64;96.96
46642;BME280;32370;41.864;-88.124;2023-03-04T03:41:15;97815.79;;;-1.76;97.49
46642;BME280;32370;41.864;-88.124;2023-03-04T03:43:43;97813.23;;;-1.56;97.48
46642;BME280;32370;41.864;-88.124;2023-03-04T03:46:11;97815.16;;;-1.93;97.83
46642;BME280;32370;41.864;-88.124;2023-03-04T03:48:39;97813.07;;;-1.68;98.05
46642;BME280;32370;41.864;-88.124;2023-03-04T03:51:07;97818.11;;;-1.73;97.77
46642;BME280;32370;41.864;-88.124;2023-03-04T03:53:36;97826.09;;;-1.72;97.70
46642;BME280;32370;41.864;-88.124;2023-03-04T03:56:04;97832.20;;;-1.71;97.97
46642;BME280;32370;41.864;-88.124;2023-03-04T03:58:32;97834.77;;;-1.71;97.41
46642;BME280;32370;41.864;-88.124;2023-03-04T04:01:00;97839.22;;;-1.79;97.68
46642;BME280;32370;41.864;-88.124;2023-03-04T04:03:28;97841.25;;;-1.91;98.09
46642;BME280;32370;41.864;-88.124;2023-03-04T04:05:56;97838.95;;;-1.90;98.02
46642;BME280;32370;41.864;-88.124;2023-03-04T04:08:24;97839.06;;;-1.96;98.21
46642;BME280;32370;41.864;-88.124;2023-03-04T04:10:52;97839.70;;;-1.76;97.29
46642;BME280;32370;41.864;-88.124;2023-03-04T04:13:20;97844.31;;;-2.23;96.50
46642;BME280;32370;41.864;-88.124;2023-03-04T04:15:50;97846.56;;;-2.10;96.96
46642;BME280;32370;41.864;-88.124;2023-03-04T04:18:19;97840.29;;;-2.22;96.43
46642;BME280;32370;41.864;-88.124;2023-03-04T04:20:47;97836.59;;;-1.87;97.41
46642;BME280;32370;41.864;-88.124;2023-03-04T04:23:15;97838.46;;;-2.33;97.67
46642;BME280;32370;41.864;-88.124;2023-03-04T04:25:43;97838.13;;;-2.57;98.92
46642;BME280;32370;41.864;-88.124;2023-03-04T04:28:11;97836.84;;;-2.34;99.27
46642;BME280;32370;41.864;-88.124;2023-03-04T04:30:39;97839.88;;;-2.71;99.61
46642;BME280;32370;41.864;-88.124;2023-03-04T04:33:07;97842.65;;;-2.59;100.00
46642;BME280;32370;41.864;-88.124;2023-03-04T04:35:36;97848.14;;;-2.95;100.00
46642;BME280;32370;41.864;-88.124;2023-03-04T04:38:04;97862.67;;;-2.81;100.00
46642;BME280;32370;41.864;-88.124;2023-03-04T04:40:33;97862.80;;;-2.73;100.00
46642;BME280;32370;41.864;-88.124;2023-03-04T04:43:01;97864.57;;;-2.71;100.00
46642;BME280;32370;41.864;-88.124;2023-03-04T04:45:29;97873.86;;;-2.53;100.00
46642;BME280;32370;41.864;-88.124;2023-03-04T04:47:57;97881.86;;;-2.91;99.84
46642;BME280;32370;41.864;-88.124;2023-03-04T04:50:26;97889.26;;;-3.08;100.00
46642;BME280;32370;41.864;-88.124;2023-03-04T04:52:54;97894.85;;;-2.95;100.00
46642;BME280;32370;41.864;-88.124;2023-03-04T04:55:22;97895.21;;;-2.98;100.00
46642;BME280;32370;41.864;-88.124;2023-03-04T04:57:50;97902.38;;;-2.99;100.00
46642;BME280;32370;41.864;-88.124;2023-03-04T05:00:19;97909.05;;;-2.80;100.00
46642;BME280;32370;41.864;-88.124;2023-03-04T05:02:47;97918.45;;;-2.86;100.00
46642;BME280;32370;41.864;-88.124;2023-03-04T05:05:15;97930.37;;;-2.89;100.00
46642;BME280;32370;41.864;-88.124;2023-03-04T05:07:43;97928.53;;;-2.78;100.00
46642;BME280;32370;41.864;-88.124;2023-03-04T05:10:11;97922.68;;;-2.42;100.00
46642;BME280;32370;41.864;-88.124;2023-03-04T05:12:39;97926.27;;;-2.88;100.00
46642;BME280;32370;41.864;-88.124;2023-03-04T05:15:08;97939.28;;;-2.80;100.00
46642;BME280;32370;41.864;-88.124;2023-03-04T05:17:38;97944.34;;;-2.86;100.00
46642;BME280;32370;41.864;-88.124;2023-03-04T05:20:06;97951.94;;;-2.42;100.00
46642;BME280;32370;41.864;-88.124;2023-03-04T05:22:34;97957.53;;;-2.48;100.00
46642;BME280;32370;41.864;-88.124;2023-03-04T05:25:03;97953.99;;;-2.54;100.00
46642;BME280;32370;41.864;-88.124;2023-03-04T05:27:31;97952.83;;;-2.75;100.00
46642;BME280;32370;41.864;-88.124;2023-03-04T05:29:59;97960.77;;;-2.56;100.00
46642;BME280;32370;41.864;-88.124;2023-03-04T05:32:27;97965.11;;;-2.80;100.00
46642;BME280;32370;41.864;-88.124;2023-03-04T05:34:55;97971.18;;;-2.87;100.00
46642;BME280;32370;41.864;-88.124;2023-03-04T05:37:23;97972.71;;;-2.78;100.00
46642;BME280;32370;41.864;-88.124;2023-03-04T05:39:51;97978.61;;;-2.96;100.00
46642;BME280;32370;41.864;-88.124;2023-03-04T05:42:19;97981.42;;;-3.03;100.00
46642;BME280;32370;41.864;-88.124;2023-03-04T05:44:47;97987.19;;;-3.04;100.00
46642;BME280;32370;41.864;-88.124;2023-03-04T05:47:15;97994.67;;;-3.08;100.00
46642;BME280;32370;41.864;-88.124;2023-03-04T05:49:43;97995.66;;;-3.15;100.00
46642;BME280;32370;41.864;-88.124;2023-03-04T05:52:11;97998.96;;;-3.18;100.00
46642;BME280;32370;41.864;-88.124;2023-03-04T05:54:39;98012.72;;;-3.14;100.00
46642;BME280;32370;41.864;-88.124;2023-03-04T05:57:07;98022.31;;;-2.50;100.00
46642;BME280;32370;41.864;-88.124;2023-03-04T05:59:35;98023.62;;;-2.63;100.00
46642;BME280;32370;41.864;-88.124;2023-03-04T06:02:03;98024.99;;;-2.53;100.00
46642;BME280;32370;41.864;-88.124;2023-03-04T06:04:31;98037.21;;;-2.77;100.00
46642;BME280;32370;41.864;-88.124;2023-03-04T06:06:59;98054.90;;;-2.51;100.00
46642;BME280;32370;41.864;-88.124;2023-03-04T06:09:27;98061.96;;;-2.54;100.00
46642;BME280;32370;41.864;-88.124;2023-03-04T06:11:55;98073.66;;;-2.30;100.00
46642;BME280;32370;41.864;-88.124;2023-03-04T06:14:23;98089.02;;;-2.55;99.86
46642;BME280;32370;41.864;-88.124;2023-03-04T06:16:51;98099.14;;;-2.54;99.53
46642;BME280;32370;41.864;-88.124;2023-03-04T06:19:21;98093.76;;;-2.40;99.51
46642;BME280;32370;41.864;-88.124;2023-03-04T06:21:49;98085.75;;;-2.36;99.21
46642;BME280;32370;41.864;-88.124;2023-03-04T06:24:17;98086.47;;;-2.79;100.00
46642;BME280;32370;41.864;-88.124;2023-03-04T06:26:45;98088.95;;;-2.90;100.00
46642;BME280;32370;41.864;-88.124;2023-03-04T06:29:13;98085.47;;;-2.90;100.00
46642;BME280;32370;41.864;-88.124;2023-03-04T06:31:41;98084.16;;;-2.89;100.00
46642;BME280;32370;41.864;-88.124;2023-03-04T06:34:09;98074.88;;;-3.01;100.00
46642;BME280;32370;41.864;-88.124;2023-03-04T06:36:37;98078.51;;;-3.12;100.00
46642;BME280;32370;41.864;-88.124;2023-03-04T06:39:06;98088.60;;;-2.83;100.00
46642;BME280;32370;41.864;-88.124;2023-03-04T06:41:35;98103.79;;;-2.95;100.00
46642;BME280;32370;41.864;-88.124;2023-03-04T06:44:03;98101.77;;;-3.03;99.78
46642;BME280;32370;41.864;-88.124;2023-03-04T06:46:33;98103.92;;;-2.79;99.61
46642;BME280;32370;41.864;-88.124;2023-03-04T06:49:01;98110.45;;;-2.59;99.75
46642;BME280;32370;41.864;-88.124;2023-03-04T06:51:29;98113.79;;;-2.75;99.47
46642;BME280;32370;41.864;-88.124;2023-03-04T06:53:57;98115.83;;;-2.72;99.14
46642;BME280;32370;41.864;-88.124;2023-03-04T06:56:25;98116.25;;;-2.90;99.26
46642;BME280;32370;41.864;-88.124;2023-03-04T06:58:53;98126.10;;;-2.65;99.73
46642;BME280;32370;41.864;-88.124;2023-03-04T07:01:22;98125.76;;;-2.79;99.31
46642;BME280;32370;41.864;-88.124;2023-03-04T07:03:52;98130.28;;;-2.88;98.97
46642;BME280;32370;41.864;-88.124;2023-03-04T07:06:23;98122.71;;;-2.58;98.78
46642;BME280;32370;41.864;-88.124;2023-03-04T07:08:51;98126.66;;;-2.82;98.26
46642;BME280;32370;41.864;-88.124;2023-03-04T07:11:19;98127.38;;;-2.90;98.31
46642;BME280;32370;41.864;-88.124;2023-03-04T07:13:49;98128.76;;;-2.93;98.03
46642;BME280;32370;41.864;-88.124;2023-03-04T07:16:20;98126.58;;;-2.89;97.71
46642;BME280;32370;41.864;-88.124;2023-03-04T07:18:48;98133.17;;;-2.89;97.46
46642;BME280;32370;41.864;-88.124;2023-03-04T07:21:17;98142.20;;;-3.14;97.59
46642;BME280;32370;41.864;-88.124;2023-03-04T07:23:46;98152.74;;;-3.14;97.94
46642;BME280;32370;41.864;-88.124;2023-03-04T07:26:13;98166.83;;;-3.22;97.74
46642;BME280;32370;41.864;-88.124;2023-03-04T07:28:41;98181.90;;;-3.06;97.71
46642;BME280;32370;41.864;-88.124;2023-03-04T07:31:11;98188.28;;;-2.91;97.58
46642;BME280;32370;41.864;-88.124;2023-03-04T07:33:40;98190.44;;;-3.29;97.52
46642;BME280;32370;41.864;-88.124;2023-03-04T07:36:08;98195.45;;;-3.33;97.93
46642;BME280;32370;41.864;-88.124;2023-03-04T07:38:36;98194.58;;;-3.12;97.83
46642;BME280;32370;41.864;-88.124;2023-03-04T07:41:04;98190.39;;;-3.39;97.72
46642;BME280;32370;41.864;-88.124;2023-03-04T07:43:32;98188.10;;;-3.28;97.61
46642;BME280;32370;41.864;-88.124;2023-03-04T07:46:01;98191.56;;;-3.38;97.59
46642;BME280;32370;41.864;-88.124;2023-03-04T07:48:29;98194.19;;;-3.15;97.74
46642;BME280;32370;41.864;-88.124;2023-03-04T07:51:15;98192.32;;;-3.47;97.78
46642;BME280;32370;41.864;-88.124;2023-03-04T07:53:45;98188.45;;;-3.19;97.67
46642;BME280;32370;41.864;-88.124;2023-03-04T07:56:16;98190.74;;;-3.50;97.69
46642;BME280;32370;41.864;-88.124;2023-03-04T07:58:44;98197.71;;;-3.48;97.78
46642;BME280;32370;41.864;-88.124;2023-03-04T08:01:14;98191.63;;;-3.22;97.63
46642;BME280;32370;41.864;-88.124;2023-03-04T08:03:43;98191.21;;;-3.69;97.57
46642;BME280;32370;41.864;-88.124;2023-03-04T08:06:14;98191.71;;;-3.45;97.62
46642;BME280;32370;41.864;-88.124;2023-03-04T08:08:42;98195.33;;;-3.55;97.64
46642;BME280;32370;41.864;-88.124;2023-03-04T08:11:12;98194.16;;;-3.68;97.57
46642;BME280;32370;41.864;-88.124;2023-03-04T08:13:41;98197.02;;;-3.67;97.39
46642;BME280;32370;41.864;-88.124;2023-03-04T08:16:12;98196.26;;;-3.61;97.44
46642;BME280;32370;41.864;-88.124;2023-03-04T08:18:40;98197.92;;;-3.67;97.31
46642;BME280;32370;41.864;-88.124;2023-03-04T08:21:10;98191.73;;;-3.31;97.30
46642;BME280;32370;41.864;-88.124;2023-03-04T08:23:39;98196.11;;;-3.59;97.03
46642;BME280;32370;41.864;-88.124;2023-03-04T08:26:11;98197.50;;;-3.66;96.98
46642;BME280;32370;41.864;-88.124;2023-03-04T08:28:40;98202.53;;;-3.50;97.10
46642;BME280;32370;41.864;-88.124;2023-03-04T08:31:08;98211.50;;;-3.09;96.50
46642;BME280;32370;41.864;-88.124;2023-03-04T08:33:36;98218.37;;;-3.70;96.39
46642;BME280;32370;41.864;-88.124;2023-03-04T08:36:05;98227.43;;;-3.35;96.31
46642;BME280;32370;41.864;-88.124;2023-03-04T08:38:33;98229.39;;;-3.93;96.23
46642;BME280;32370;41.864;-88.124;2023-03-04T08:41:01;98230.40;;;-3.45;96.21
46642;BME280;32370;41.864;-88.124;2023-03-04T08:43:30;98235.82;;;-3.71;96.88
46642;BME280;32370;41.864;-88.124;2023-03-04T08:45:58;98241.12;;;-4.03;97.04
46642;BME280;32370;41.864;-88.124;2023-03-04T08:48:26;98246.01;;;-3.73;97.00
46642;BME280;32370;41.864;-88.124;2023-03-04T08:50:54;98252.18;;;-3.63;96.79
46642;BME280;32370;41.864;-88.124;2023-03-04T08:53:22;98256.58;;;-3.74;96.64
46642;BME280;32370;41.864;-88.124;2023-03-04T08:55:51;98261.07;;;-3.74;96.67
46642;BME280;32370;41.864;-88.124;2023-03-04T08:58:19;98264.63;;;-3.70;96.33
46642;BME280;32370;41.864;-88.124;2023-03-04T09:00:48;98260.56;;;-4.04;96.38
46642;BME280;32370;41.864;-88.124;2023-03-04T09:03:17;98261.38;;;-3.76;96.13
46642;BME280;32370;41.864;-88.124;2023-03-04T09:05:46;98269.57;;;-4.14;95.80
46642;BME280;32370;41.864;-88.124;2023-03-04T09:08:15;98270.57;;;-4.07;96.29
46642;BME280;32370;41.864;-88.124;2023-03-04T09:10:44;98270.57;;;-3.95;96.48
46642;BME280;32370;41.864;-88.124;2023-03-04T09:13:13;98272.54;;;-4.16;96.60
46642;BME280;32370;41.864;-88.124;2023-03-04T09:15:44;98273.55;;;-3.64;96.17
46642;BME280;32370;41.864;-88.124;2023-03-04T09:18:13;98275.90;;;-3.90;96.20
46642;BME280;32370;41.864;-88.124;2023-03-04T09:20:41;98277.22;;;-4.10;96.79
46642;BME280;32370;41.864;-88.124;2023-03-04T09:23:09;98280.87;;;-4.14;96.94
46642;BME280;32370;41.864;-88.124;2023-03-04T09:25:40;98290.70;;;-4.20;97.01
46642;BME280;32370;41.864;-88.124;2023-03-04T09:28:10;98295.84;;;-4.18;97.18
46642;BME280;32370;41.864;-88.124;2023-03-04T09:30:38;98301.59;;;-4.15;97.02
46642;BME280;32370;41.864;-88.124;2023-03-04T09:33:06;98301.73;;;-4.17;96.96
46642;BME280;32370;41.864;-88.124;2023-03-04T09:35:35;98315.51;;;-4.27;96.65
46642;BME280;32370;41.864;-88.124;2023-03-04T09:38:03;98317.00;;;-4.07;96.53
46642;BME280;32370;41.864;-88.124;2023-03-04T09:40:36;98324.40;;;-4.21;96.28
46642;BME280;32370;41.864;-88.124;2023-03-04T09:43:11;98322.65;;;-4.03;96.38
46642;BME280;32370;41.864;-88.124;2023-03-04T09:45:42;98326.22;;;-4.26;96.35
46642;BME280;32370;41.864;-88.124;2023-03-04T09:48:16;98331.08;;;-4.62;97.69
46642;BME280;32370;41.864;-88.124;2023-03-04T09:50:58;98326.22;;;-5.10;100.00
46642;BME280;32370;41.864;-88.124;2023-03-04T09:53:33;98323.08;;;-5.14;100.00
46642;BME280;32370;41.864;-88.124;2023-03-04T09:56:05;98318.46;;;-4.62;100.00
46642;BME280;32370;41.864;-88.124;2023-03-04T09:58:42;98315.75;;;-4.83;99.48
46642;BME280;32370;41.864;-88.124;2023-03-04T10:01:19;98315.24;;;-4.75;99.02
46642;BME280;32370;41.864;-88.124;2023-03-04T10:03:52;98311.97;;;-3.92;97.99
46642;BME280;32370;41.864;-88.124;2023-03-04T10:06:22;98320.26;;;-4.65;97.35
46642;BME280;32370;41.864;-88.124;2023-03-04T10:08:55;98321.64;;;-4.54;98.12
46642;BME280;32370;41.864;-88.124;2023-03-04T10:11:28;98326.91;;;-4.83;98.47
46642;BME280;32370;41.864;-88.124;2023-03-04T10:14:10;98335.67;;;-5.01;98.69
46642;BME280;32370;41.864;-88.124;2023-03-04T10:16:46;98341.68;;;-4.98;98.82
46642;BME280;32370;41.864;-88.124;2023-03-04T10:19:25;98353.29;;;-5.00;98.89
46642;BME280;32370;41.864;-88.124;2023-03-04T10:21:54;98365.27;;;-4.76;98.48
46642;BME280;32370;41.864;-88.124;2023-03-04T10:24:26;98371.20;;;-4.71;98.14
46642;BME280;32370;41.864;-88.124;2023-03-04T10:27:00;98380.56;;;-5.01;97.97
46642;BME280;32370;41.864;-88.124;2023-03-04T10:29:32;98392.01;;;-4.81;97.82
46642;BME280;32370;41.864;-88.124;2023-03-04T10:32:00;98395.45;;;-4.70;97.74
46642;BME280;32370;41.864;-88.124;2023-03-04T10:34:28;98399.85;;;-5.03;97.96
46642;BME280;32370;41.864;-88.124;2023-03-04T10:36:59;98414.11;;;-4.62;98.18
46642;BME280;32370;41.864;-88.124;2023-03-04T10:39:31;98419.16;;;-4.64;98.06
46642;BME280;32370;41.864;-88.124;2023-03-04T10:42:02;98414.68;;;-4.64;97.07
46642;BME280;32370;41.864;-88.124;2023-03-04T10:44:33;98406.49;;;-4.30;96.66
46642;BME280;32370;41.864;-88.124;2023-03-04T10:47:01;98414.80;;;-4.81;97.72
46642;BME280;32370;41.864;-88.124;2023-03-04T10:49:29;98426.24;;;-4.92;98.43
46642;BME280;32370;41.864;-88.124;2023-03-04T10:52:03;98436.60;;;-5.09;98.70
46642;BME280;32370;41.864;-88.124;2023-03-04T10:54:41;98446.22;;;-4.95;99.60
46642;BME280;32370;41.864;-88.124;2023-03-04T10:57:15;98444.68;;;-4.67;100.00
46642;BME280;32370;41.864;-88.124;2023-03-04T10:59:46;98447.01;;;-4.69;100.00
46642;BME280;32370;41.864;-88.124;2023-03-04T11:02:19;98451.01;;;-4.69;100.00
46642;BME280;32370;41.864;-88.124;2023-03-04T11:04:51;98451.69;;;-4.62;100.00
46642;BME280;32370;41.864;-88.124;2023-03-04T11:07:20;98451.85;;;-4.88;100.00
46642;BME280;32370;41.864;-88.124;2023-03-04T11:09:49;98455.02;;;-4.64;100.00
46642;BME280;32370;41.864;-88.124;2023-03-04T11:12:20;98458.39;;;-4.64;100.00
46642;BME280;32370;41.864;-88.124;2023-03-04T11:14:50;98458.28;;;-4.83;100.00
46642;BME280;32370;41.864;-88.124;2023-03-04T11:17:22;98460.78;;;-4.93;100.00
46642;BME280;32370;41.864;-88.124;2023-03-04T11:19:55;98458.19;;;-5.18;100.00
46642;BME280;32370;41.864;-88.124;2023-03-04T11:22:25;98456.04;;;-4.96;100.00
46642;BME280;32370;41.864;-88.124;2023-03-04T11:24:58;98456.12;;;-5.25;100.00
46642;BME280;32370;41.864;-88.124;2023-03-04T11:27:46;98459.66;;;-5.64;100.00
46642;BME280;32370;41.864;-88.124;2023-03-04T11:30:28;98450.41;;;-5.29;100.00
46642;BME280;32370;41.864;-88.124;2023-03-04T11:33:05;98466.85;;;-5.82;100.00
46642;BME280;32370;41.864;-88.124;2023-03-04T11:35:45;98468.51;;;-5.69;100.00
46642;BME280;32370;41.864;-88.124;2023-03-04T11:38:17;98473.33;;;-5.66;100.00
46642;BME280;32370;41.864;-88.124;2023-03-04T11:40:48;98474.34;;;-5.29;100.00
46642;BME280;32370;41.864;-88.124;2023-03-04T11:43:22;98486.23;;;-5.00;100.00
46642;BME280;32370;41.864;-88.124;2023-03-04T11:46:08;98484.33;;;-4.88;100.00
46642;BME280;32370;41.864;-88.124;2023-03-04T11:48:48;98489.16;;;-5.08;100.00
46642;BME280;32370;41.864;-88.124;2023-03-04T11:51:24;98492.67;;;-4.94;100.00
46642;BME280;32370;41.864;-88.124;2023-03-04T11:54:05;98493.15;;;-4.74;100.00
46642;BME280;32370;41.864;-88.124;2023-03-04T11:56:40;98489.66;;;-4.84;100.00
46642;BME280;32370;41.864;-88.124;2023-03-04T11:59:28;98485.99;;;-4.67;100.00
46642;BME280;32370;41.864;-88.124;2023-03-04T12:02:12;98497.38;;;-4.85;100.00
46642;BME280;32370;41.864;-88.124;2023-03-04T12:05:25;98513.77;;;-4.74;100.00
46642;BME280;32370;41.864;-88.124;2023-03-04T12:08:53;98514.89;;;-5.67;100.00
46642;BME280;32370;41.864;-88.124;2023-03-04T12:11:33;98507.17;;;-4.80;100.00
46642;BME280;32370;41.864;-88.124;2023-03-04T12:14:15;98506.65;;;-5.16;100.00
46642;BME280;32370;41.864;-88.124;2023-03-04T12:17:07;98506.26;;;-4.50;100.00
46642;BME280;32370;41.864;-88.124;2023-03-04T12:19:50;98509.14;;;-4.60;100.00
46642;BME280;32370;41.864;-88.124;2023-03-04T12:22:32;98512.44;;;-4.41;100.00
46642;BME280;32370;41.864;-88.124;2023-03-04T12:25:25;98506.31;;;-4.68;100.00
46642;BME280;32370;41.864;-88.124;2023-03-04T12:28:21;98512.29;;;-4.87;100.00
46642;BME280;32370;41.864;-88.124;2023-03-04T12:31:02;98527.06;;;-4.65;100.00
46642;BME280;32370;41.864;-88.124;2023-03-04T12:33:43;98538.02;;;-4.48;100.00
46642;BME280;32370;41.864;-88.124;2023-03-04T12:36:20;98544.48;;;-4.48;100.00
46642;BME280;32370;41.864;-88.124;2023-03-04T12:38:59;98545.62;;;-4.66;100.00
46642;BME280;32370;41.864;-88.124;2023-03-04T12:41:41;98544.79;;;-4.48;100.00
46642;BME280;32370;41.864;-88.124;2023-03-04T12:44:14;98541.32;;;-4.29;100.00
46642;BME280;32370;41.864;-88.124;2023-03-04T12:46:59;98539.75;;;-4.45;100.00
46642;BME280;32370;41.864;-88.124;2023-03-04T12:49:43;98543.28;;;-4.67;100.00
46642;BME280;32370;41.864;-88.124;2023-03-04T12:52:21;98545.18;;;-3.91;100.00
46642;BME280;32370;41.864;-88.124;2023-03-04T12:54:55;98550.80;;;-4.21;100.00
46642;BME280;32370;41.864;-88.124;2023-03-04T12:57:24;98554.21;;;-4.27;100.00